sensor_id;sensor_type;location;lat;lon;timestamp;P1;durP1;ratioP1;P2;durP2;ratioP2
8247;SDS011;4164;49.844;8.830;2023-07-31T00:00:34;3.70;;;2.17;;
8247;SDS011;4164;49.844;8.830;2023-07-31T00:02:59;5.03;;;2.10;;
8247;SDS011;4164;49.844;8.830;2023-07-31T00:05:25;4.17;;;1.90;;
8247;SDS011;4164;49.844;8.830;2023-07-31T00:07:50;6.23;;;2.30;;
8247;SDS011;4164;49.844;8.830;2023-07-31T00:10:16;4.53;;;2.20;;
8247;SDS011;4164;49.844;8.830;2023-07-31T00:12:42;5.03;;;2.30;;
8247;SDS011;4164;49.844;8.830;2023-07-31T00:15:08;6.53;;;2.23;;
8247;SDS011;4164;49.844;8.830;2023-07-31T00:17:34;7.67;;;2.43;;
8247;SDS011;4164;49.844;8.830;2023-07-31T00:20:00;4.17;;;2.23;;
8247;SDS011;4164;49.844;8.830;2023-07-31T00:22:26;4.97;;;2.03;;
8247;SDS011;4164;49.844;8.830;2023-07-31T00:24:52;4.63;;;2.20;;
8247;SDS011;4164;49.844;8.830;2023-07-31T00:27:17;6.67;;;2.43;;
8247;SDS011;4164;49.844;8.830;2023-07-31T00:29:43;7.20;;;2.40;;
8247;SDS011;4164;49.844;8.830;2023-07-31T00:32:08;8.57;;;2.63;;
8247;SDS011;4164;49.844;8.830;2023-07-31T00:34:34;7.27;;;2.57;;
8247;SDS011;4164;49.844;8.830;2023-07-31T00:36:59;6.23;;;2.33;;
8247;SDS011;4164;49.844;8.830;2023-07-31T00:39:25;4.10;;;2.10;;
8247;SDS011;4164;49.844;8.830;2023-07-31T00:41:50;5.17;;;2.40;;
8247;SDS011;4164;49.844;8.830;2023-07-31T00:44:16;3.30;;;1.70;;
8247;SDS011;4164;49.844;8.830;2023-07-31T00:46:41;3.77;;;2.10;;
8247;SDS011;4164;49.844;8.830;2023-07-31T00:49:07;5.23;;;2.17;;
8247;SDS011;4164;49.844;8.830;2023-07-31T00:51:33;4.40;;;2.30;;
8247;SDS011;4164;49.844;8.830;2023-07-31T00:53:59;8.87;;;2.30;;
8247;SDS011;4164;49.844;8.830;2023-07-31T00:56:25;6.87;;;2.60;;
8247;SDS011;4164;49.844;8.830;2023-07-31T00:58:52;7.27;;;2.77;;
8247;SDS011;4164;49.844;8.830;2023-07-31T01:01:17;5.17;;;1.80;;
8247;SDS011;4164;49.844;8.830;2023-07-31T01:03:43;8.17;;;2.60;;
8247;SDS011;4164;49.844;8.830;2023-07-31T01:11:28;4.73;;;2.20;;
8247;SDS011;4164;49.844;8.830;2023-07-31T01:14:03;5.53;;;2.37;;
8247;SDS011;4164;49.844;8.830;2023-07-31T01:16:29;3.03;;;2.40;;
8247;SDS011;4164;49.844;8.830;2023-07-31T01:18:54;6.30;;;2.10;;
8247;SDS011;4164;49.844;8.830;2023-07-31T01:26:47;7.27;;;2.60;;
8247;SDS011;4164;49.844;8.830;2023-07-31T01:29:23;4.67;;;2.40;;
8247;SDS011;4164;49.844;8.830;2023-07-31T01:31:55;6.90;;;2.57;;
8247;SDS011;4164;49.844;8.830;2023-07-31T01:34:23;7.07;;;2.50;;
8247;SDS011;4164;49.844;8.830;2023-07-31T01:36:50;3.60;;;2.20;;
8247;SDS011;4164;49.844;8.830;2023-07-31T01:39:15;8.13;;;2.33;;
8247;SDS011;4164;49.844;8.830;2023-07-31T01:41:41;4.97;;;2.40;;
8247;SDS011;4164;49.844;8.830;2023-07-31T01:44:06;6.53;;;2.37;;
8247;SDS011;4164;49.844;8.830;2023-07-31T01:46:32;4.53;;;2.80;;
8247;SDS011;4164;49.844;8.830;2023-07-31T01:48:58;8.57;;;2.50;;
8247;SDS011;4164;49.844;8.830;2023-07-31T01:51:23;6.17;;;2.57;;
8247;SDS011;4164;49.844;8.830;2023-07-31T01:53:49;5.67;;;2.30;;
8247;SDS011;4164;49.844;8.830;2023-07-31T01:56:14;7.07;;;2.70;;
8247;SDS011;4164;49.844;8.830;2023-07-31T01:58:40;5.40;;;2.20;;
8247;SDS011;4164;49.844;8.830;2023-07-31T02:01:05;9.53;;;2.67;;
8247;SDS011;4164;49.844;8.830;2023-07-31T02:03:31;7.07;;;2.60;;
8247;SDS011;4164;49.844;8.830;2023-07-31T02:05:56;5.43;;;2.20;;
8247;SDS011;4164;49.844;8.830;2023-07-31T02:08:22;6.07;;;2.40;;
8247;SDS011;4164;49.844;8.830;2023-07-31T02:10:47;5.20;;;2.33;;
8247;SDS011;4164;49.844;8.830;2023-07-31T02:13:13;8.50;;;2.73;;
8247;SDS011;4164;49.844;8.830;2023-07-31T02:15:38;8.03;;;2.70;;
8247;SDS011;4164;49.844;8.830;2023-07-31T02:18:04;7.67;;;2.67;;
8247;SDS011;4164;49.844;8.830;2023-07-31T02:20:30;9.80;;;2.60;;
8247;SDS011;4164;49.844;8.830;2023-07-31T02:22:58;7.43;;;2.20;;
8247;SDS011;4164;49.844;8.830;2023-07-31T02:25:24;5.57;;;2.70;;
8247;SDS011;4164;49.844;8.830;2023-07-31T02:27:49;6.87;;;2.67;;
8247;SDS011;4164;49.844;8.830;2023-07-31T02:30:15;4.87;;;2.53;;
8247;SDS011;4164;49.844;8.830;2023-07-31T02:32:41;5.27;;;2.20;;
8247;SDS011;4164;49.844;8.830;2023-07-31T02:35:06;8.20;;;2.63;;
8247;SDS011;4164;49.844;8.830;2023-07-31T02:37:33;8.83;;;2.80;;
8247;SDS011;4164;49.844;8.830;2023-07-31T02:39:59;5.70;;;2.53;;
8247;SDS011;4164;49.844;8.830;2023-07-31T02:42:24;6.77;;;2.73;;
8247;SDS011;4164;49.844;8.830;2023-07-31T02:44:50;6.67;;;2.80;;
8247;SDS011;4164;49.844;8.830;2023-07-31T02:47:20;4.33;;;2.53;;
8247;SDS011;4164;49.844;8.830;2023-07-31T02:49:46;7.33;;;2.70;;
8247;SDS011;4164;49.844;8.830;2023-07-31T02:52:12;4.50;;;2.23;;
8247;SDS011;4164;49.844;8.830;2023-07-31T02:54:37;7.57;;;3.20;;
8247;SDS011;4164;49.844;8.830;2023-07-31T02:57:04;7.43;;;2.50;;
8247;SDS011;4164;49.844;8.830;2023-07-31T02:59:30;7.77;;;2.57;;
8247;SDS011;4164;49.844;8.830;2023-07-31T03:01:56;8.07;;;2.60;;
8247;SDS011;4164;49.844;8.830;2023-07-31T03:04:22;7.87;;;2.77;;
8247;SDS011;4164;49.844;8.830;2023-07-31T03:06:47;3.93;;;2.37;;
8247;SDS011;4164;49.844;8.830;2023-07-31T03:09:13;7.17;;;2.60;;
8247;SDS011;4164;49.844;8.830;2023-07-31T03:11:38;6.77;;;2.63;;
8247;SDS011;4164;49.844;8.830;2023-07-31T03:14:04;6.60;;;2.70;;
8247;SDS011;4164;49.844;8.830;2023-07-31T03:16:29;6.43;;;2.40;;
8247;SDS011;4164;49.844;8.830;2023-07-31T03:18:55;5.20;;;2.60;;
8247;SDS011;4164;49.844;8.830;2023-07-31T03:21:20;8.73;;;2.90;;
8247;SDS011;4164;49.844;8.830;2023-07-31T03:23:46;6.33;;;2.50;;
8247;SDS011;4164;49.844;8.830;2023-07-31T03:26:11;7.10;;;2.73;;
8247;SDS011;4164;49.844;8.830;2023-07-31T03:28:37;10.30;;;2.43;;
8247;SDS011;4164;49.844;8.830;2023-07-31T03:31:02;4.93;;;2.77;;
8247;SDS011;4164;49.844;8.830;2023-07-31T03:33:28;8.47;;;2.37;;
8247;SDS011;4164;49.844;8.830;2023-07-31T03:35:53;7.37;;;2.93;;
8247;SDS011;4164;49.844;8.830;2023-07-31T03:38:19;6.97;;;2.30;;
8247;SDS011;4164;49.844;8.830;2023-07-31T03:40:45;7.03;;;2.37;;
8247;SDS011;4164;49.844;8.830;2023-07-31T03:43:11;8.50;;;3.30;;
8247;SDS011;4164;49.844;8.830;2023-07-31T03:45:36;5.60;;;3.00;;
8247;SDS011;4164;49.844;8.830;2023-07-31T03:48:03;5.17;;;2.33;;
8247;SDS011;4164;49.844;8.830;2023-07-31T03:50:29;10.60;;;3.00;;
8247;SDS011;4164;49.844;8.830;2023-07-31T03:52:55;5.07;;;2.97;;
8247;SDS011;4164;49.844;8.830;2023-07-31T03:55:20;7.27;;;2.90;;
8247;SDS011;4164;49.844;8.830;2023-07-31T03:57:47;5.47;;;3.20;;
8247;SDS011;4164;49.844;8.830;2023-07-31T04:00:13;8.07;;;3.03;;
8247;SDS011;4164;49.844;8.830;2023-07-31T04:02:39;6.27;;;2.97;;
8247;SDS011;4164;49.844;8.830;2023-07-31T04:05:04;9.87;;;2.90;;
8247;SDS011;4164;49.844;8.830;2023-07-31T04:07:30;6.40;;;3.10;;
8247;SDS011;4164;49.844;8.830;2023-07-31T04:09:56;5.70;;;2.70;;
8247;SDS011;4164;49.844;8.830;2023-07-31T04:12:22;7.70;;;3.40;;
8247;SDS011;4164;49.844;8.830;2023-07-31T04:14:47;6.47;;;2.87;;
8247;SDS011;4164;49.844;8.830;2023-07-31T04:17:13;5.50;;;2.87;;
8247;SDS011;4164;49.844;8.830;2023-07-31T04:19:39;7.27;;;3.63;;
8247;SDS011;4164;49.844;8.830;2023-07-31T04:22:04;6.60;;;2.80;;
8247;SDS011;4164;49.844;8.830;2023-07-31T04:24:30;5.50;;;2.60;;
8247;SDS011;4164;49.844;8.830;2023-07-31T04:26:55;9.93;;;3.07;;
8247;SDS011;4164;49.844;8.830;2023-07-31T04:29:21;3.93;;;2.90;;
8247;SDS011;4164;49.844;8.830;2023-07-31T04:31:47;7.27;;;2.87;;
8247;SDS011;4164;49.844;8.830;2023-07-31T04:34:13;5.93;;;3.20;;
8247;SDS011;4164;49.844;8.830;2023-07-31T04:36:39;6.00;;;2.80;;
8247;SDS011;4164;49.844;8.830;2023-07-31T04:39:04;8.07;;;3.30;;
8247;SDS011;4164;49.844;8.830;2023-07-31T04:41:30;9.07;;;3.20;;
8247;SDS011;4164;49.844;8.830;2023-07-31T04:43:56;4.37;;;3.07;;
8247;SDS011;4164;49.844;8.830;2023-07-31T04:46:21;8.03;;;3.13;;
8247;SDS011;4164;49.844;8.830;2023-07-31T04:48:47;8.37;;;3.07;;
8247;SDS011;4164;49.844;8.830;2023-07-31T04:51:12;5.03;;;2.67;;
8247;SDS011;4164;49.844;8.830;2023-07-31T04:53:38;6.07;;;2.83;;
8247;SDS011;4164;49.844;8.830;2023-07-31T04:56:04;7.23;;;3.23;;
8247;SDS011;4164;49.844;8.830;2023-07-31T04:58:29;9.50;;;3.73;;
8247;SDS011;4164;49.844;8.830;2023-07-31T05:00:55;10.43;;;3.40;;
8247;SDS011;4164;49.844;8.830;2023-07-31T05:03:20;9.20;;;2.83;;
8247;SDS011;4164;49.844;8.830;2023-07-31T05:05:46;4.47;;;2.57;;
8247;SDS011;4164;49.844;8.830;2023-07-31T05:08:11;4.93;;;2.60;;
8247;SDS011;4164;49.844;8.830;2023-07-31T05:10:37;5.60;;;2.90;;
8247;SDS011;4164;49.844;8.830;2023-07-31T05:13:02;7.17;;;3.07;;
8247;SDS011;4164;49.844;8.830;2023-07-31T05:15:28;6.00;;;3.10;;
8247;SDS011;4164;49.844;8.830;2023-07-31T05:17:54;6.67;;;2.97;;
8247;SDS011;4164;49.844;8.830;2023-07-31T05:20:20;6.30;;;2.90;;
8247;SDS011;4164;49.844;8.830;2023-07-31T05:22:46;6.47;;;2.80;;
8247;SDS011;4164;49.844;8.830;2023-07-31T05:25:11;6.63;;;2.83;;
8247;SDS011;4164;49.844;8.830;2023-07-31T05:27:37;5.60;;;2.80;;
8247;SDS011;4164;49.844;8.830;2023-07-31T05:30:02;6.33;;;3.13;;
8247;SDS011;4164;49.844;8.830;2023-07-31T05:32:29;8.17;;;2.93;;
8247;SDS011;4164;49.844;8.830;2023-07-31T05:34:54;5.43;;;2.70;;
8247;SDS011;4164;49.844;8.830;2023-07-31T05:37:20;7.60;;;3.00;;
8247;SDS011;4164;49.844;8.830;2023-07-31T05:39:45;7.70;;;3.23;;
8247;SDS011;4164;49.844;8.830;2023-07-31T05:42:11;7.07;;;3.20;;
8247;SDS011;4164;49.844;8.830;2023-07-31T05:44:36;4.77;;;2.60;;
8247;SDS011;4164;49.844;8.830;2023-07-31T05:47:02;7.17;;;3.27;;
8247;SDS011;4164;49.844;8.830;2023-07-31T05:49:28;4.97;;;2.83;;
8247;SDS011;4164;49.844;8.830;2023-07-31T05:51:53;5.43;;;2.87;;
8247;SDS011;4164;49.844;8.830;2023-07-31T05:54:19;6.93;;;2.83;;
8247;SDS011;4164;49.844;8.830;2023-07-31T05:56:44;8.80;;;3.27;;
8247;SDS011;4164;49.844;8.830;2023-07-31T05:59:11;6.50;;;2.93;;
8247;SDS011;4164;49.844;8.830;2023-07-31T06:01:37;5.47;;;3.03;;
8247;SDS011;4164;49.844;8.830;2023-07-31T06:04:03;9.03;;;3.23;;
8247;SDS011;4164;49.844;8.830;2023-07-31T06:06:28;5.57;;;2.70;;
8247;SDS011;4164;49.844;8.830;2023-07-31T06:08:54;5.53;;;2.60;;
8247;SDS011;4164;49.844;8.830;2023-07-31T06:11:20;6.73;;;2.90;;
8247;SDS011;4164;49.844;8.830;2023-07-31T06:13:46;5.17;;;2.57;;
8247;SDS011;4164;49.844;8.830;2023-07-31T06:16:13;5.27;;;2.63;;
8247;SDS011;4164;49.844;8.830;2023-07-31T06:18:39;4.80;;;2.83;;
8247;SDS011;4164;49.844;8.830;2023-07-31T06:21:05;9.63;;;3.67;;
8247;SDS011;4164;49.844;8.830;2023-07-31T06:23:30;6.83;;;2.70;;
8247;SDS011;4164;49.844;8.830;2023-07-31T06:25:56;10.07;;;3.10;;
8247;SDS011;4164;49.844;8.830;2023-07-31T06:28:25;5.80;;;2.87;;
8247;SDS011;4164;49.844;8.830;2023-07-31T06:30:53;4.97;;;2.90;;
8247;SDS011;4164;49.844;8.830;2023-07-31T06:33:18;7.63;;;2.83;;
8247;SDS011;4164;49.844;8.830;2023-07-31T06:35:44;5.60;;;2.67;;
8247;SDS011;4164;49.844;8.830;2023-07-31T06:38:10;5.73;;;3.07;;
8247;SDS011;4164;49.844;8.830;2023-07-31T06:40:36;6.70;;;3.07;;
8247;SDS011;4164;49.844;8.830;2023-07-31T06:43:01;10.40;;;3.13;;
8247;SDS011;4164;49.844;8.830;2023-07-31T06:45:32;5.97;;;2.93;;
8247;SDS011;4164;49.844;8.830;2023-07-31T06:48:02;7.37;;;2.87;;
8247;SDS011;4164;49.844;8.830;2023-07-31T06:50:29;19.97;;;3.83;;
8247;SDS011;4164;49.844;8.830;2023-07-31T06:52:57;7.00;;;2.87;;
8247;SDS011;4164;49.844;8.830;2023-07-31T06:55:23;5.20;;;2.60;;
8247;SDS011;4164;49.844;8.830;2023-07-31T06:57:50;8.23;;;3.10;;
8247;SDS011;4164;49.844;8.830;2023-07-31T07:00:16;4.77;;;2.90;;
8247;SDS011;4164;49.844;8.830;2023-07-31T07:02:42;7.90;;;3.03;;
8247;SDS011;4164;49.844;8.830;2023-07-31T07:05:08;6.80;;;2.90;;
8247;SDS011;4164;49.844;8.830;2023-07-31T07:07:34;7.03;;;2.80;;
8247;SDS011;4164;49.844;8.830;2023-07-31T07:10:00;7.10;;;2.77;;
8247;SDS011;4164;49.844;8.830;2023-07-31T07:12:29;7.83;;;2.97;;
8247;SDS011;4164;49.844;8.830;2023-07-31T07:14:55;8.43;;;2.97;;
8247;SDS011;4164;49.844;8.830;2023-07-31T07:17:22;6.03;;;3.07;;
8247;SDS011;4164;49.844;8.830;2023-07-31T07:19:48;5.30;;;2.60;;
8247;SDS011;4164;49.844;8.830;2023-07-31T07:22:14;7.63;;;3.40;;
8247;SDS011;4164;49.844;8.830;2023-07-31T07:24:39;8.57;;;2.93;;
8247;SDS011;4164;49.844;8.830;2023-07-31T07:27:05;6.93;;;3.37;;
8247;SDS011;4164;49.844;8.830;2023-07-31T07:29:31;7.63;;;3.17;;
8247;SDS011;4164;49.844;8.830;2023-07-31T07:31:56;5.27;;;2.50;;
8247;SDS011;4164;49.844;8.830;2023-07-31T07:34:22;7.17;;;3.60;;
8247;SDS011;4164;49.844;8.830;2023-07-31T07:36:50;6.40;;;2.60;;
8247;SDS011;4164;49.844;8.830;2023-07-31T07:39:16;4.60;;;2.67;;
8247;SDS011;4164;49.844;8.830;2023-07-31T07:41:42;8.73;;;2.90;;
8247;SDS011;4164;49.844;8.830;2023-07-31T07:44:07;7.57;;;2.90;;
8247;SDS011;4164;49.844;8.830;2023-07-31T07:46:33;6.43;;;2.93;;
8247;SDS011;4164;49.844;8.830;2023-07-31T07:48:58;5.30;;;2.67;;
8247;SDS011;4164;49.844;8.830;2023-07-31T07:51:24;6.73;;;2.63;;
8247;SDS011;4164;49.844;8.830;2023-07-31T07:53:50;5.23;;;2.97;;
8247;SDS011;4164;49.844;8.830;2023-07-31T07:56:15;8.33;;;2.90;;
8247;SDS011;4164;49.844;8.830;2023-07-31T07:58:41;7.87;;;2.57;;
8247;SDS011;4164;49.844;8.830;2023-07-31T08:01:06;4.23;;;3.00;;
8247;SDS011;4164;49.844;8.830;2023-07-31T08:03:32;7.90;;;2.70;;
8247;SDS011;4164;49.844;8.830;2023-07-31T08:05:58;5.00;;;2.90;;
8247;SDS011;4164;49.844;8.830;2023-07-31T08:08:24;8.13;;;3.10;;
8247;SDS011;4164;49.844;8.830;2023-07-31T08:10:50;7.60;;;2.90;;
8247;SDS011;4164;49.844;8.830;2023-07-31T08:13:15;5.20;;;2.70;;
8247;SDS011;4164;49.844;8.830;2023-07-31T08:15:41;7.43;;;2.73;;
8247;SDS011;4164;49.844;8.830;2023-07-31T08:18:07;5.83;;;2.80;;
8247;SDS011;4164;49.844;8.830;2023-07-31T08:20:33;6.13;;;3.30;;
8247;SDS011;4164;49.844;8.830;2023-07-31T08:22:59;7.97;;;2.70;;
8247;SDS011;4164;49.844;8.830;2023-07-31T08:25:24;9.17;;;2.70;;
8247;SDS011;4164;49.844;8.830;2023-07-31T08:27:50;6.87;;;3.27;;
8247;SDS011;4164;49.844;8.830;2023-07-31T08:30:17;6.00;;;2.87;;
8247;SDS011;4164;49.844;8.830;2023-07-31T08:32:44;10.77;;;3.17;;
8247;SDS011;4164;49.844;8.830;2023-07-31T08:35:09;4.83;;;2.63;;
8247;SDS011;4164;49.844;8.830;2023-07-31T08:37:35;7.80;;;3.00;;
8247;SDS011;4164;49.844;8.830;2023-07-31T08:40:01;6.30;;;3.20;;
8247;SDS011;4164;49.844;8.830;2023-07-31T08:42:27;5.73;;;3.03;;
8247;SDS011;4164;49.844;8.830;2023-07-31T08:44:52;6.87;;;3.27;;
8247;SDS011;4164;49.844;8.830;2023-07-31T08:47:20;4.87;;;2.70;;
8247;SDS011;4164;49.844;8.830;2023-07-31T08:49:46;5.87;;;2.60;;
8247;SDS011;4164;49.844;8.830;2023-07-31T08:52:12;5.00;;;3.23;;
8247;SDS011;4164;49.844;8.830;2023-07-31T08:54:38;5.77;;;3.00;;
8247;SDS011;4164;49.844;8.830;2023-07-31T08:57:04;10.13;;;3.10;;
8247;SDS011;4164;49.844;8.830;2023-07-31T08:59:31;6.30;;;2.83;;
8247;SDS011;4164;49.844;8.830;2023-07-31T09:02:02;4.97;;;3.07;;
8247;SDS011;4164;49.844;8.830;2023-07-31T09:04:32;5.53;;;2.73;;
8247;SDS011;4164;49.844;8.830;2023-07-31T09:07:00;6.80;;;3.03;;
8247;SDS011;4164;49.844;8.830;2023-07-31T09:09:26;4.97;;;2.80;;
8247;SDS011;4164;49.844;8.830;2023-07-31T09:11:52;5.23;;;3.03;;
8247;SDS011;4164;49.844;8.830;2023-07-31T09:14:18;5.10;;;3.10;;
8247;SDS011;4164;49.844;8.830;2023-07-31T09:16:56;13.57;;;3.10;;
8247;SDS011;4164;49.844;8.830;2023-07-31T09:19:28;7.37;;;3.10;;
8247;SDS011;4164;49.844;8.830;2023-07-31T09:21:57;10.37;;;2.90;;
8247;SDS011;4164;49.844;8.830;2023-07-31T09:24:27;9.67;;;2.97;;
8247;SDS011;4164;49.844;8.830;2023-07-31T09:26:57;6.17;;;2.80;;
8247;SDS011;4164;49.844;8.830;2023-07-31T09:29:24;4.73;;;3.00;;
8247;SDS011;4164;49.844;8.830;2023-07-31T09:31:51;8.90;;;3.50;;
8247;SDS011;4164;49.844;8.830;2023-07-31T09:34:18;5.10;;;3.00;;
8247;SDS011;4164;49.844;8.830;2023-07-31T09:36:44;7.47;;;2.90;;
8247;SDS011;4164;49.844;8.830;2023-07-31T09:39:12;5.27;;;3.10;;
8247;SDS011;4164;49.844;8.830;2023-07-31T09:41:46;5.10;;;2.67;;
8247;SDS011;4164;49.844;8.830;2023-07-31T09:44:18;7.33;;;2.90;;
8247;SDS011;4164;49.844;8.830;2023-07-31T09:46:43;6.77;;;2.90;;
8247;SDS011;4164;49.844;8.830;2023-07-31T09:49:09;5.33;;;2.90;;
8247;SDS011;4164;49.844;8.830;2023-07-31T09:51:37;6.57;;;2.93;;
8247;SDS011;4164;49.844;8.830;2023-07-31T09:54:10;9.30;;;2.83;;
8247;SDS011;4164;49.844;8.830;2023-07-31T09:56:41;9.10;;;2.80;;
8247;SDS011;4164;49.844;8.830;2023-07-31T09:59:17;7.00;;;3.30;;
8247;SDS011;4164;49.844;8.830;2023-07-31T10:01:45;4.73;;;2.63;;
8247;SDS011;4164;49.844;8.830;2023-07-31T10:04:11;5.90;;;3.10;;
8247;SDS011;4164;49.844;8.830;2023-07-31T10:06:38;6.37;;;2.93;;
8247;SDS011;4164;49.844;8.830;2023-07-31T10:09:05;5.97;;;3.13;;
8247;SDS011;4164;49.844;8.830;2023-07-31T10:11:34;5.90;;;3.03;;
8247;SDS011;4164;49.844;8.830;2023-07-31T10:14:08;6.37;;;3.00;;
8247;SDS011;4164;49.844;8.830;2023-07-31T10:16:37;6.97;;;3.13;;
8247;SDS011;4164;49.844;8.830;2023-07-31T10:19:03;8.87;;;3.30;;
8247;SDS011;4164;49.844;8.830;2023-07-31T10:21:29;4.87;;;3.10;;
8247;SDS011;4164;49.844;8.830;2023-07-31T10:24:01;11.37;;;3.43;;
8247;SDS011;4164;49.844;8.830;2023-07-31T10:26:29;7.77;;;3.17;;
8247;SDS011;4164;49.844;8.830;2023-07-31T10:28:57;7.03;;;3.20;;
8247;SDS011;4164;49.844;8.830;2023-07-31T10:31:23;6.00;;;3.10;;
8247;SDS011;4164;49.844;8.830;2023-07-31T10:33:50;7.73;;;3.17;;
8247;SDS011;4164;49.844;8.830;2023-07-31T10:36:18;8.40;;;3.53;;
8247;SDS011;4164;49.844;8.830;2023-07-31T10:38:45;8.33;;;3.30;;
8247;SDS011;4164;49.844;8.830;2023-07-31T10:41:13;7.47;;;3.37;;
8247;SDS011;4164;49.844;8.830;2023-07-31T10:43:39;5.40;;;3.27;;
8247;SDS011;4164;49.844;8.830;2023-07-31T10:46:08;6.57;;;3.13;;
8247;SDS011;4164;49.844;8.830;2023-07-31T10:48:36;7.70;;;3.20;;
8247;SDS011;4164;49.844;8.830;2023-07-31T10:51:06;5.80;;;3.53;;
8247;SDS011;4164;49.844;8.830;2023-07-31T10:53:33;7.13;;;3.00;;
8247;SDS011;4164;49.844;8.830;2023-07-31T10:55:59;10.63;;;3.37;;
8247;SDS011;4164;49.844;8.830;2023-07-31T10:58:26;5.00;;;3.43;;
8247;SDS011;4164;49.844;8.830;2023-07-31T11:00:56;7.63;;;3.50;;
8247;SDS011;4164;49.844;8.830;2023-07-31T11:03:25;6.73;;;3.10;;
8247;SDS011;4164;49.844;8.830;2023-07-31T11:06:09;9.40;;;3.40;;
8247;SDS011;4164;49.844;8.830;2023-07-31T11:08:40;6.17;;;3.50;;
8247;SDS011;4164;49.844;8.830;2023-07-31T11:11:08;6.77;;;3.37;;
8247;SDS011;4164;49.844;8.830;2023-07-31T11:16:07;4.43;;;3.20;;
8247;SDS011;4164;49.844;8.830;2023-07-31T11:18:34;11.07;;;3.10;;
8247;SDS011;4164;49.844;8.830;2023-07-31T11:21:00;7.50;;;2.83;;
8247;SDS011;4164;49.844;8.830;2023-07-31T11:23:26;6.13;;;3.27;;
8247;SDS011;4164;49.844;8.830;2023-07-31T11:25:51;7.73;;;3.27;;
8247;SDS011;4164;49.844;8.830;2023-07-31T11:28:17;9.73;;;3.73;;
8247;SDS011;4164;49.844;8.830;2023-07-31T11:30:44;8.77;;;3.40;;
8247;SDS011;4164;49.844;8.830;2023-07-31T11:33:12;7.67;;;3.77;;
8247;SDS011;4164;49.844;8.830;2023-07-31T11:38:11;9.47;;;3.83;;
8247;SDS011;4164;49.844;8.830;2023-07-31T11:40:45;8.93;;;3.87;;
8247;SDS011;4164;49.844;8.830;2023-07-31T11:43:11;5.53;;;3.23;;
8247;SDS011;4164;49.844;8.830;2023-07-31T11:45:41;15.27;;;4.57;;
8247;SDS011;4164;49.844;8.830;2023-07-31T11:48:06;6.97;;;3.67;;
8247;SDS011;4164;49.844;8.830;2023-07-31T11:50:33;7.27;;;3.53;;
8247;SDS011;4164;49.844;8.830;2023-07-31T11:53:01;5.57;;;3.23;;
8247;SDS011;4164;49.844;8.830;2023-07-31T11:55:31;11.33;;;4.07;;
8247;SDS011;4164;49.844;8.830;2023-07-31T11:57:57;8.57;;;3.80;;
8247;SDS011;4164;49.844;8.830;2023-07-31T12:00:24;9.90;;;3.47;;
8247;SDS011;4164;49.844;8.830;2023-07-31T12:02:52;6.23;;;3.97;;
8247;SDS011;4164;49.844;8.830;2023-07-31T12:05:18;7.60;;;3.30;;
8247;SDS011;4164;49.844;8.830;2023-07-31T12:07:48;10.03;;;3.60;;
8247;SDS011;4164;49.844;8.830;2023-07-31T12:10:22;6.07;;;3.20;;
8247;SDS011;4164;49.844;8.830;2023-07-31T12:12:55;8.73;;;3.53;;
8247;SDS011;4164;49.844;8.830;2023-07-31T12:15:28;6.53;;;3.60;;
8247;SDS011;4164;49.844;8.830;2023-07-31T12:17:56;8.47;;;3.70;;
8247;SDS011;4164;49.844;8.830;2023-07-31T12:20:21;7.17;;;3.23;;
8247;SDS011;4164;49.844;8.830;2023-07-31T12:22:47;5.37;;;3.50;;
8247;SDS011;4164;49.844;8.830;2023-07-31T12:25:16;10.90;;;3.50;;
8247;SDS011;4164;49.844;8.830;2023-07-31T12:27:44;5.37;;;3.50;;
8247;SDS011;4164;49.844;8.830;2023-07-31T12:30:28;6.37;;;3.77;;
8247;SDS011;4164;49.844;8.830;2023-07-31T12:32:56;6.53;;;3.10;;
8247;SDS011;4164;49.844;8.830;2023-07-31T12:35:21;8.00;;;3.80;;
8247;SDS011;4164;49.844;8.830;2023-07-31T12:37:47;7.90;;;3.53;;
8247;SDS011;4164;49.844;8.830;2023-07-31T12:40:13;6.97;;;3.27;;
8247;SDS011;4164;49.844;8.830;2023-07-31T12:42:38;7.63;;;3.37;;
8247;SDS011;4164;49.844;8.830;2023-07-31T12:45:05;7.03;;;3.50;;
8247;SDS011;4164;49.844;8.830;2023-07-31T12:47:31;4.87;;;2.90;;
8247;SDS011;4164;49.844;8.830;2023-07-31T12:49:57;9.40;;;3.43;;
8247;SDS011;4164;49.844;8.830;2023-07-31T12:52:22;6.20;;;3.43;;
8247;SDS011;4164;49.844;8.830;2023-07-31T12:54:48;7.90;;;3.33;;
8247;SDS011;4164;49.844;8.830;2023-07-31T12:57:13;9.37;;;3.63;;
8247;SDS011;4164;49.844;8.830;2023-07-31T12:59:39;6.87;;;3.27;;
8247;SDS011;4164;49.844;8.830;2023-07-31T13:02:04;5.50;;;3.20;;
8247;SDS011;4164;49.844;8.830;2023-07-31T13:04:30;5.47;;;3.13;;
8247;SDS011;4164;49.844;8.830;2023-07-31T13:06:55;8.33;;;3.20;;
8247;SDS011;4164;49.844;8.830;2023-07-31T13:09:21;7.27;;;3.33;;
8247;SDS011;4164;49.844;8.830;2023-07-31T13:11:47;6.40;;;3.13;;
8247;SDS011;4164;49.844;8.830;2023-07-31T13:14:12;8.43;;;3.43;;
8247;SDS011;4164;49.844;8.830;2023-07-31T13:16:38;8.97;;;3.10;;
8247;SDS011;4164;49.844;8.830;2023-07-31T13:19:03;6.13;;;3.10;;
8247;SDS011;4164;49.844;8.830;2023-07-31T13:21:29;6.47;;;3.47;;
8247;SDS011;4164;49.844;8.830;2023-07-31T13:23:54;6.33;;;3.13;;
8247;SDS011;4164;49.844;8.830;2023-07-31T13:26:22;6.63;;;3.27;;
8247;SDS011;4164;49.844;8.830;2023-07-31T13:28:48;4.83;;;2.93;;
8247;SDS011;4164;49.844;8.830;2023-07-31T13:31:13;6.30;;;3.40;;
8247;SDS011;4164;49.844;8.830;2023-07-31T13:33:39;4.00;;;2.50;;
8247;SDS011;4164;49.844;8.830;2023-07-31T13:36:05;6.57;;;3.33;;
8247;SDS011;4164;49.844;8.830;2023-07-31T13:38:30;6.97;;;2.83;;
8247;SDS011;4164;49.844;8.830;2023-07-31T13:40:56;5.83;;;3.20;;
8247;SDS011;4164;49.844;8.830;2023-07-31T13:43:21;6.57;;;3.03;;
8247;SDS011;4164;49.844;8.830;2023-07-31T13:45:47;7.57;;;3.07;;
8247;SDS011;4164;49.844;8.830;2023-07-31T13:48:12;7.43;;;3.13;;
8247;SDS011;4164;49.844;8.830;2023-07-31T13:50:38;6.43;;;3.20;;
8247;SDS011;4164;49.844;8.830;2023-07-31T13:53:03;6.43;;;3.33;;
8247;SDS011;4164;49.844;8.830;2023-07-31T13:55:29;7.00;;;3.20;;
8247;SDS011;4164;49.844;8.830;2023-07-31T13:57:54;6.00;;;3.37;;
8247;SDS011;4164;49.844;8.830;2023-07-31T14:00:20;8.47;;;3.60;;
8247;SDS011;4164;49.844;8.830;2023-07-31T14:02:45;8.30;;;3.47;;
8247;SDS011;4164;49.844;8.830;2023-07-31T14:05:11;8.00;;;3.10;;
8247;SDS011;4164;49.844;8.830;2023-07-31T14:07:37;7.03;;;3.47;;
8247;SDS011;4164;49.844;8.830;2023-07-31T14:10:02;6.60;;;3.43;;
8247;SDS011;4164;49.844;8.830;2023-07-31T14:12:29;4.57;;;2.90;;
8247;SDS011;4164;49.844;8.830;2023-07-31T14:14:55;6.43;;;3.20;;
8247;SDS011;4164;49.844;8.830;2023-07-31T14:17:21;6.10;;;3.17;;
8247;SDS011;4164;49.844;8.830;2023-07-31T14:19:46;5.50;;;2.93;;
8247;SDS011;4164;49.844;8.830;2023-07-31T14:22:12;5.60;;;3.17;;
8247;SDS011;4164;49.844;8.830;2023-07-31T14:24:37;3.80;;;3.03;;
8247;SDS011;4164;49.844;8.830;2023-07-31T14:27:03;6.23;;;3.80;;
8247;SDS011;4164;49.844;8.830;2023-07-31T14:29:29;5.70;;;3.47;;
8247;SDS011;4164;49.844;8.830;2023-07-31T14:31:55;6.77;;;3.20;;
8247;SDS011;4164;49.844;8.830;2023-07-31T14:34:20;8.13;;;3.53;;
8247;SDS011;4164;49.844;8.830;2023-07-31T14:36:46;6.70;;;3.07;;
8247;SDS011;4164;49.844;8.830;2023-07-31T14:39:12;10.17;;;3.27;;
8247;SDS011;4164;49.844;8.830;2023-07-31T14:41:37;6.33;;;2.93;;
8247;SDS011;4164;49.844;8.830;2023-07-31T14:44:03;6.43;;;2.90;;
8247;SDS011;4164;49.844;8.830;2023-07-31T14:46:28;4.67;;;3.27;;
8247;SDS011;4164;49.844;8.830;2023-07-31T14:48:54;6.20;;;3.40;;
8247;SDS011;4164;49.844;8.830;2023-07-31T14:51:19;11.47;;;3.50;;
8247;SDS011;4164;49.844;8.830;2023-07-31T14:53:46;5.83;;;3.20;;
8247;SDS011;4164;49.844;8.830;2023-07-31T14:56:12;5.93;;;2.93;;
8247;SDS011;4164;49.844;8.830;2023-07-31T14:58:37;9.03;;;3.70;;
8247;SDS011;4164;49.844;8.830;2023-07-31T15:01:03;7.00;;;3.30;;
8247;SDS011;4164;49.844;8.830;2023-07-31T15:03:28;5.10;;;3.40;;
8247;SDS011;4164;49.844;8.830;2023-07-31T15:05:54;4.83;;;2.70;;
8247;SDS011;4164;49.844;8.830;2023-07-31T15:08:20;5.77;;;3.13;;
8247;SDS011;4164;49.844;8.830;2023-07-31T15:10:45;4.57;;;3.00;;
8247;SDS011;4164;49.844;8.830;2023-07-31T15:13:11;4.67;;;3.17;;
8247;SDS011;4164;49.844;8.830;2023-07-31T15:15:37;5.53;;;3.07;;
8247;SDS011;4164;49.844;8.830;2023-07-31T15:18:02;7.97;;;3.30;;
8247;SDS011;4164;49.844;8.830;2023-07-31T15:20:28;5.23;;;3.40;;
8247;SDS011;4164;49.844;8.830;2023-07-31T15:22:55;5.73;;;3.23;;
8247;SDS011;4164;49.844;8.830;2023-07-31T15:25:20;7.50;;;3.57;;